Imperial Valley (TL50001) Station Data

Red Flag Warning: No
Fire Weather Zone: 262
SDGE Region: Mountain Empire
Lat/Lon: 32.745/-116.038

Observations

Time Wind Speed/Gust Temp(F) RH Fuel Moist Fuel Temp(F) Dewpt(F) Tmax(F) Tmin(F) Accum Precip 10-min Precip SL Press(mb)
4/30 12:00am 247 7 G 9 73° 9% - - 10° 81.3° 64.8° - - 1020.0
4/29 11:50pm 246 6 G 8 72° 9% - - 10° 81.3° 64.8° - - 1020.0
4/29 11:40pm 249 7 G 9 71° 9% - - 10° 81.3° 64.8° - - 1019.0
4/29 11:30pm 254 7 G 9 70° 10% - - 10° 81.3° 64.8° - - 1019.0
4/29 11:20pm 259 5 G 7 71° 9% - - 10° 81.3° 64.8° - - 1019.0
4/29 11:10pm 266 5 G 7 70° 9% - - 10° 81.3° 64.8° - - 1019.0
4/29 11:00pm 262 4 G 9 70° 9% - - 10° 81.3° 64.8° - - 1019.0
4/29 10:50pm 266 5 G 9 72° 9% - - 10° 81.3° 64.8° - - 1019.0
4/29 10:40pm 286 4 G 5 69° 10% - - 10° 81.3° 64.8° - - 1019.0
4/29 10:30pm 262 6 G 10 70° 9% - - 10° 81.3° 64.8° - - 1019.0
4/29 10:20pm 293 6 G 7 70° 10% - - 10° 81.3° 64.8° - - 1019.0
4/29 10:10pm 254 6 G 8 74° 8% - - 10° 81.3° 64.8° - - 1019.0
4/29 10:00pm 246 6 G 7 73° 9% - - 10° 81.3° 64.8° - - 1019.0
4/29 9:50pm 253 4 G 7 74° 8% - - 10° 81.3° 64.8° - - 1019.0
4/29 9:40pm 247 6 G 8 74° 8% - - 10° 81.3° 64.8° - - 1019.0
4/29 9:30pm 247 5 G 7 75° 8% - - 10° 81.3° 64.8° - - 1019.0
4/29 9:20pm 248 6 G 8 73° 8% - - 81.3° 64.8° - - 1019.0
4/29 9:10pm 245 6 G 7 75° 8% - - 10° 81.3° 64.8° - - 1018.0
4/29 9:00pm 236 4 G 6 75° 8% - - 10° 81.3° 64.8° - - 1018.0
4/29 8:50pm 208 6 G 7 76° 8% - - 10° 81.3° 64.8° - - 1018.0
4/29 8:40pm 199 5 G 7 76° 8% - - 10° 81.3° 64.8° - - 1018.0
4/29 8:30pm 195 4 G 5 76° 8% - - 10° 81.3° 64.8° - - 1018.0
4/29 8:20pm 174 4 G 5 77° 7% - - 10° 81.3° 64.8° - - 1018.0
4/29 8:10pm 141 5 G 6 77° 7% - - 81.3° 64.8° - - 1017.0
4/29 8:00pm 81 4 G 6 77° 7% - - 81.3° 64.8° - - 1017.0
4/29 7:50pm 76 5 G 7 79° 7% - - 81.3° 64.8° - - 1017.0
4/29 7:40pm 74 4 G 7 78° 7% - - 81.3° 64.8° - - 1017.0
4/29 7:30pm 73 4 G 6 79° 7% - - 81.3° 64.8° - - 1017.0
4/29 7:20pm 70 4 G 6 79° 7% - - 81.3° 64.8° - - 1017.0
4/29 7:10pm 64 5 G 9 80° 7% - - 10° 81.3° 64.8° - - 1017.0
4/29 7:00pm 56 6 G 8 80° 7% - - 10° 81.3° 64.8° - - 1017.0
4/29 6:50pm 56 8 G 13 80° 7% - - 10° 81.3° 64.8° - - 1017.0
4/29 6:40pm 54 10 G 14 81° 7% - - 81.3° 64.8° - - 1017.0
4/29 6:30pm 66 9 G 13 81° 7% - - 10° 81.3° 64.8° - - 1017.0
4/29 6:20pm 81 5 G 13 81° 7% - - 11° 81.3° 64.8° - - 1017.0
4/29 6:10pm 96 6 G 9 81° 7% - - 11° 81.3° 64.8° - - 1016.0
4/29 6:00pm 43 10 G 15 81° 7% - - 11° 81.3° 64.8° - - 1016.0
4/29 5:50pm 64 8 G 15 81° 7% - - 11° 81.3° 64.8° - - 1016.0
4/29 5:40pm 53 8 G 14 81° 7% - - 11° 81.3° 64.8° - - 1017.0
4/29 5:30pm 53 9 G 15 81° 7% - - 11° 81.3° 64.8° - - 1017.0
4/29 5:20pm 15 7 G 15 81° 7% - - 11° 81.3° 64.8° - - 1017.0
4/29 5:10pm 18 9 G 16 81° 7% - - 10° 81.3° 64.8° - - 1017.0
4/29 5:00pm 40 10 G 16 81° 7% - - 10° 81.3° 64.8° - - 1017.0
4/29 4:50pm 40 10 G 17 81° 7% - - 10° 81° 64.8° - - 1017.0
4/29 4:40pm 15 7 G 15 80° 7% - - 10° 81° 64.8° - - 1017.0
4/29 4:30pm 40 13 G 18 80° 7% - - 10° 81° 64.8° - - 1017.0
4/29 4:20pm 60 11 G 18 80° 7% - - 10° 80.9° 64.8° - - 1017.0
4/29 4:10pm 47 6 G 11 80° 7% - - 10° 80.8° 64.8° - - 1017.0
4/29 4:00pm 36 10 G 16 80° 7% - - 10° 80.8° 64.8° - - 1017.0
4/29 3:50pm 77 8 G 15 79° 7% - - 11° 80.6° 64.8° - - 1017.0
4/29 3:40pm 51 11 G 17 80° 7% - - 11° 80.6° 64.8° - - 1017.0
4/29 3:30pm 56 7 G 14 79° 8% - - 11° 79.8° 64.8° - - 1018.0
4/29 3:20pm 50 12 G 21 79° 8% - - 11° 79.7° 64.8° - - 1018.0
4/29 3:10pm 74 7 G 12 79° 8% - - 13° 79.7° 64.8° - - 1018.0
4/29 3:00pm 67 10 G 17 78° 8% - - 13° 79.4° 64.8° - - 1018.0
4/29 2:50pm 52 10 G 15 78° 8% - - 12° 79.4° 64.8° - - 1018.0
4/29 2:40pm 23 11 G 20 78° 8% - - 13° 79.2° 64.8° - - 1018.0
4/29 2:30pm 25 9 G 15 78° 8% - - 13° 78.8° 64.8° - - 1018.0
4/29 2:20pm 51 13 G 21 77° 8% - - 13° 78.6° 64.8° - - 1018.0
4/29 2:10pm 79 13 G 22 77° 9% - - 14° 77.9° 64.8° - - 1018.0
4/29 2:00pm 61 11 G 22 77° 9% - - 14° 77.9° 64.8° - - 1019.0
4/29 1:50pm 35 10 G 21 77° 9% - - 14° 77.9° 64.8° - - 1019.0
4/29 1:40pm 39 9 G 17 77° 9% - - 14° 77.9° 64.8° - - 1019.0
4/29 1:30pm 59 12 G 20 77° 9% - - 14° 77.5° 64.8° - - 1019.0
4/29 1:20pm 71 11 G 19 76° 9% - - 14° 77.4° 64.8° - - 1019.0
4/29 1:10pm 44 9 G 19 76° 9% - - 14° 77.4° 64.8° - - 1019.0
4/29 1:00pm 33 12 G 22 77° 9% - - 14° 77.4° 64.8° - - 1019.0
4/29 12:50pm 28 11 G 16 76° 9% - - 14° 76.3° 64.8° - - 1019.0
4/29 12:40pm 33 12 G 20 75° 10% - - 14° 75.8° 64.8° - - 1019.0
4/29 12:30pm 53 9 G 15 75° 10% - - 14° 75.8° 64.8° - - 1019.0
4/29 12:20pm 39 11 G 21 75° 9% - - 13° 75.8° 64.8° - - 1019.0
4/29 12:10pm 28 7 G 16 75° 9% - - 13° 75.8° 64.8° - - 1020.0
4/29 12:00pm 57 8 G 18 74° 10% - - 13° 74.9° 64.8° - - 1020.0
4/29 11:50am 76 5 G 15 74° 10% - - 13° 74.9° 64.8° - - 1020.0
4/29 11:40am 51 11 G 20 74° 9% - - 13° 74.9° 64.8° - - 1020.0
4/29 11:30am 29 8 G 14 74° 10% - - 13° 74.4° 64.8° - - 1020.0
4/29 11:20am 40 10 G 19 74° 10% - - 13° 74.3° 64.8° - - 1020.0
4/29 11:10am 14 11 G 20 73° 10% - - 13° 73.5° 64.8° - - 1020.0
4/29 11:00am 41 11 G 18 73° 10% - - 13° 73.5° 64.8° - - 1020.0
4/29 10:50am 65 12 G 18 73° 9% - - 12° 73.5° 64.8° - - 1020.0
4/29 10:40am 47 10 G 18 73° 9% - - 12° 73.5° 64.8° - - 1020.0
4/29 10:30am 52 7 G 13 72° 10% - - 12° 73.5° 64.8° - - 1020.0
4/29 10:20am 53 10 G 18 71° 10% - - 12° 73.5° 64.8° - - 1020.0
4/29 10:10am 29 12 G 18 71° 10% - - 12° 73.5° 64.8° - - 1020.0
4/29 10:00am 37 10 G 16 71° 10% - - 12° 73.5° 64.8° - - 1020.0
4/29 9:50am 33 10 G 17 71° 10% - - 12° 73.5° 64.8° - - 1020.0
4/29 9:40am 52 10 G 17 71° 10% - - 11° 73.5° 64.8° - - 1020.0
4/29 9:30am 39 10 G 17 71° 10% - - 11° 73.5° 64.8° - - 1020.0
4/29 9:20am 21 10 G 18 71° 10% - - 11° 73.5° 64.8° - - 1020.0
4/29 9:10am 47 8 G 12 71° 10% - - 11° 73.5° 64.8° - - 1020.0
4/29 9:00am 52 10 G 16 70° 10% - - 10° 73.5° 64.8° - - 1019.0
4/29 8:50am 41 6 G 13 70° 10% - - 10° 73.5° 64.8° - - 1019.0
4/29 8:40am 38 10 G 18 70° 10% - - 10° 73.5° 64.8° - - 1020.0
4/29 8:30am 42 9 G 16 70° 10% - - 10° 73.5° 64.8° - - 1020.0
4/29 8:20am 57 6 G 14 70° 10% - - 10° 73.5° 64.8° - - 1020.0
4/29 8:10am 44 5 G 12 70° 10% - - 10° 73.5° 64.8° - - 1019.0
4/29 8:00am 33 6 G 10 69° 10% - - 10° 73.5° 64.8° - - 1019.0
4/29 7:50am 49 6 G 11 69° 10% - - 10° 73.5° 64.8° - - 1019.0
4/29 7:40am 71 3 G 8 70° 10% - - 10° 73.5° 64.8° - - 1019.0
4/29 7:30am 40 3 G 6 69° 10% - - 73.5° 64.8° - - 1019.0
4/29 7:20am 20 4 G 9 69° 10% - - 73.5° 64.8° - - 1019.0
4/29 7:10am 222 1 G 3 68° 10% - - 10° 73.5° 64.8° - - 1019.0
4/29 7:00am 96 1 G 5 67° 11% - - 10° 73.5° 64.8° - - 1019.0
4/29 6:50am 338 3 G 7 66° 11% - - 11° 73.5° 64.8° - - 1018.0
4/29 6:40am 34 2 G 4 65° 12% - - 12° 73.5° 64.8° - - 1018.0
4/29 6:30am 69 2 G 5 65° 13% - - 13° 73.5° 64.8° - - 1018.0
4/29 6:20am 49 4 G 7 65° 13% - - 13° 73.5° 64.8° - - 1018.0
4/29 6:10am 53 6 G 11 66° 12% - - 12° 73.5° 64.8° - - 1018.0
4/29 6:00am 47 8 G 13 66° 12% - - 11° 73.5° 64.8° - - 1018.0
4/29 5:50am 35 6 G 10 66° 12% - - 11° 73.5° 64.8° - - 1017.0
4/29 5:40am 33 6 G 11 66° 12% - - 12° 73.5° 64.8° - - 1017.0
4/29 5:30am 70 4 G 11 67° 13% - - 14° 73.5° 64.8° - - 1017.0
4/29 5:20am 105 3 G 11 66° 13% - - 14° 73.5° 64.8° - - 1017.0
4/29 5:10am 116 4 G 8 66° 13% - - 14° 73.5° 64.8° - - 1017.0
4/29 5:00am 167 3 G 5 66° 13% - - 14° 73.5° 64.8° - - 1017.0
4/29 4:50am 146 2 G 8 65° 13% - - 13° 73.5° 64.8° - - 1017.0
4/29 4:40am 113 2 G 4 66° 12% - - 13° 73.5° 65.2° - - 1017.0
4/29 4:30am 48 4 G 8 67° 12% - - 13° 73.5° 65.8° - - 1017.0
4/29 4:20am 56 2 G 6 67° 12% - - 12° 73.5° 65.8° - - 1017.0
4/29 4:10am 46 2 G 7 67° 12% - - 12° 73.5° 65.8° - - 1017.0
4/29 4:00am 338 1 G 4 67° 11% - - 12° 73.5° 66.1° - - 1017.0
4/29 3:50am 88 2 G 8 67° 11% - - 11° 73.5° 66.1° - - 1017.0
4/29 3:40am 117 4 G 8 69° 11% - - 11° 73.5° 66.1° - - 1016.0
4/29 3:30am 152 6 G 10 68° 11% - - 11° 73.5° 66.1° - - 1016.0
4/29 3:20am 159 7 G 9 68° 10% - - 10° 73.5° 66.1° - - 1016.0
4/29 3:10am 160 7 G 9 68° 10% - - 73.5° 66.1° - - 1016.0
4/29 3:00am 162 6 G 9 67° 10% - - 73.5° 66.2° - - 1016.0
4/29 2:50am 165 6 G 7 68° 10% - - 73.5° 67.2° - - 1016.0
4/29 2:40am 159 5 G 7 68° 10% - - 73.5° 67.3° - - 1016.0
4/29 2:30am 136 5 G 8 69° 9% - - 73.5° 67.3° - - 1016.0
4/29 2:20am 134 5 G 8 68° 10% - - 73.5° 67.3° - - 1016.0
4/29 2:10am 148 5 G 6 68° 10% - - 10° 73.5° 67.7° - - 1015.0
4/29 2:00am 136 4 G 5 69° 10% - - 10° 73.5° 68.5° - - 1015.0
4/29 1:50am 129 4 G 5 69° 10% - - 10° 73.5° 68.5° - - 1015.0
4/29 1:40am 132 4 G 5 69° 11% - - 11° 73.5° 68.5° - - 1015.0
4/29 1:30am 117 5 G 8 69° 10% - - 11° 73.5° 68.6° - - 1015.0
4/29 1:20am 127 6 G 8 69° 11% - - 13° 73.5° 68.7° - - 1015.0
4/29 1:10am 148 5 G 7 69° 14% - - 17° 73.5° 68.7° - - 1015.0
4/29 1:00am 138 4 G 6 70° 14% - - 18° 73.5° 69.5° - - 1015.0
4/29 12:50am 136 2 G 3 70° 13% - - 17° 73.5° 69.5° - - 1014.0
4/29 12:40am 100 1 G 5 70° 13% - - 17° 73.5° 69.5° - - 1014.0
4/29 12:30am 88 4 G 7 71° 12% - - 15° 73.5° 70.2° - - 1014.0
4/29 12:20am 68 4 G 8 72° 11% - - 15° 73.5° 71.2° - - 1014.0
4/29 12:10am 64 6 G 13 73° 10% - - 13° 73.5° 72.3° - - 1013.0
4/29 12:00am 19 3 G 10 74° 9% - - 12° 84.7° 69.5° - - 1013.0
4/28 11:50pm 129 2 G 9 74° 10% - - 13° 84.7° 69.5° - - 1013.0
4/28 11:40pm 168 1 G 4 74° 10% - - 13° 84.7° 69.5° - - 1013.0
4/28 11:30pm 232 1 G 3 74° 10% - - 13° 84.7° 69.5° - - 1012.0
4/28 11:20pm 327 0 G 2 74° 10% - - 13° 84.7° 69.5° - - 1012.0
4/28 11:10pm 94 1 G 2 75° 9% - - 13° 84.7° 69.5° - - 1012.0
4/28 11:00pm 180 2 G 4 75° 9% - - 13° 84.7° 69.5° - - 1012.0
4/28 10:50pm 147 2 G 4 74° 10% - - 13° 84.7° 69.5° - - 1012.0
4/28 10:40pm 177 2 G 5 75° 10% - - 14° 84.7° 69.5° - - 1012.0
4/28 10:30pm 169 2 G 3 75° 10% - - 15° 84.7° 69.5° - - 1012.0
4/28 10:20pm 170 2 G 3 75° 10% - - 16° 84.7° 69.5° - - 1012.0
4/28 10:10pm 82 1 G 2 76° 10% - - 16° 84.7° 69.5° - - 1012.0
4/28 10:00pm 59 2 G 5 76° 10% - - 15° 84.7° 69.5° - - 1011.0
4/28 9:50pm 9 3 G 7 76° 10% - - 14° 84.7° 69.5° - - 1011.0
4/28 9:40pm 218 4 G 6 76° 8% - - 11° 84.7° 69.5° - - 1011.0
4/28 9:30pm 219 4 G 6 77° 8% - - 11° 84.7° 69.5° - - 1011.0
4/28 9:20pm 213 1 G 3 76° 8% - - 11° 84.7° 69.5° - - 1011.0
4/28 9:10pm 333 0 G 1 76° 8% - - 10° 84.7° 69.5° - - 1011.0
4/28 9:00pm 90 1 G 3 76° 8% - - 10° 84.7° 69.5° - - 1010.0
4/28 8:50pm 46 3 G 6 77° 8% - - 11° 84.7° 69.5° - - 1010.0
4/28 8:40pm 80 2 G 5 77° 9% - - 14° 84.7° 69.5° - - 1010.0
4/28 8:30pm 88 4 G 6 78° 10% - - 16° 84.7° 69.5° - - 1010.0
4/28 8:20pm 87 4 G 6 78° 11% - - 19° 84.7° 69.5° - - 1009.0
4/28 8:10pm 54 4 G 10 78° 17% - - 30° 84.7° 69.5° - - 1009.0
4/28 8:00pm 168 9 G 15 78° 23% - - 37° 84.7° 69.5° - - 1008.0
4/28 7:50pm 214 9 G 14 79° 22% - - 37° 84.7° 69.5° - - 1008.0
4/28 7:40pm 192 9 G 17 79° 21% - - 35° 84.7° 69.5° - - 1008.0
4/28 7:30pm 108 4 G 7 81° 10% - - 18° 84.7° 69.5° - - 1007.0
4/28 7:20pm 80 4 G 6 81° 9% - - 18° 84.7° 69.5° - - 1007.0
4/28 7:10pm 66 6 G 8 82° 9% - - 18° 84.7° 69.5° - - 1007.0
4/28 7:00pm 87 6 G 11 82° 9% - - 18° 84.7° 69.5° - - 1007.0
4/28 6:50pm 90 7 G 10 82° 9% - - 18° 84.7° 69.5° - - 1007.0
4/28 6:40pm 84 8 G 12 83° 9% - - 19° 84.7° 69.5° - - 1007.0
4/28 6:30pm 74 5 G 9 83° 9% - - 19° 84.7° 69.5° - - 1007.0
4/28 6:20pm 72 5 G 9 83° 9% - - 19° 84.7° 69.5° - - 1007.0
4/28 6:10pm 78 5 G 9 83° 9% - - 19° 84.7° 69.5° - - 1006.0
4/28 6:00pm 84 8 G 13 83° 9% - - 20° 84.7° 69.5° - - 1006.0